San Jacinto, Nevada
Current Conditions -  °F | °C
As of 6:53 AM on Thursday 18 Dec 2014 (Local Time) from KTWF Reporting Station
Clear Clear  
Wind Chill: 19°   Ceiling: Unl
Heat Index: 28°   Visibility: 10mi
Dew Point: 21°   Wind: 9mph
Humidity: 75%   Direction: 140°SE
Pressure: 30.09"   Gusts: NA
Location:  41.8136°N, 115.084°W
Report Text: KTWF 181453Z 14008KT 10SM CLR M02/M06 A3009 RMK AO2 SNE04 SLP196 P0000 60000 T10221061 52005
Loading
Personal Weather Stations






























Interactive Weather Map New forecast layout! Learn more

10-Day Weather Forecast

Advertisements
Track Severe Weather on mobile